F/V Harvestor — WDC8229 — position and weather

sailwx.info

Track history (hours):
 
Tides and Currents Weather Stations Pressure Air Temp Water Temp Dewpoint Dewpoint Depression Visibility Wind Speed Wind Dir Waves Ship Positions

F/V Harvestor

Owner: F/V HARVESTOR INC., EDMONDS, WA. More information available from US FCC via Universal Licensing System and Coast Guard Vessel Documentation Center.

Last reported at 2016-Aug-26 11:33 UTC. Time now 2016-Aug-26 11:56 UTC.
Position N 47°38' W 122°23'.

Length 40 m.

Type: Fishing. MMSI: 367083650.

Date/timePositionNaut miles runAvg speedWind from/ knotsBaromVisibWave heightAir tempDewpointWater temp
2016-Aug-26 11:33N 47°38' W 122°23'0 0.0
2016-Aug-26 10:33N 47°38' W 122°23'0 0.0
2016-Aug-26 09:33N 47°38' W 122°23'0 0.0
2016-Aug-26 08:33N 47°38' W 122°23'0 0.0
2016-Aug-26 07:33N 47°38' W 122°23'0 0.0
2016-Aug-26 06:33N 47°38' W 122°23'0 0.0
2016-Aug-26 04:33N 47°38' W 122°23'0 0.0
2016-Aug-26 03:33N 47°38' W 122°23'5 4.6
2016-Aug-26 02:33N 47°42' W 122°26'8 8.4
2016-Aug-26 01:33N 47°50' W 122°24'9 8.7
2016-Aug-26 00:33N 47°59' W 122°20'9 8.9
2016-Aug-25 23:34N 48°06' W 122°28'8 8.4
2016-Aug-25 22:33N 48°14' W 122°33'7 6.7
2016-Aug-25 21:31N 48°21' W 122°33'4 3.7
2016-Aug-25 20:29N 48°24' W 122°34'0 0.0
2016-Aug-25 19:19N 48°24' W 122°34'0 0.0
2016-Aug-25 18:15N 48°24' W 122°34'0 0.0
2016-Aug-25 17:33N 48°25' W 122°34'0 0.0
2016-Aug-25 13:27N 48°24' W 122°34'0 0.0
2016-Aug-25 12:33N 48°24' W 122°34'0 0.0
2016-Aug-25 11:06N 48°24' W 122°34'0 0.0
2016-Aug-25 09:33N 48°24' W 122°34'0 0.0
2016-Aug-25 08:33N 48°24' W 122°34'0 0.0
2016-Aug-25 07:31N 48°24' W 122°34'0 0.0
2016-Aug-25 06:33N 48°24' W 122°34'0 0.0
2016-Aug-25 04:32N 48°24' W 122°34'0 0.0
2016-Aug-25 03:29N 48°25' W 122°34'3 2.9
2016-Aug-25 02:30N 48°22' W 122°34'7 7.1
2016-Aug-25 01:33N 48°15' W 122°32'8 7.7
2016-Aug-25 00:30N 48°07' W 122°30'7 7.8
2016-Aug-24 23:33N 48°02' W 122°22'7 7.2
2016-Aug-24 22:33N 47°55' W 122°21'8 7.9
2016-Aug-24 21:33N 47°47' W 122°25'9 8.7
2016-Aug-24 20:33N 47°39' W 122°25'2 1.8
2016-Aug-24 19:33N 47°38' W 122°23'0 0.0
2016-Aug-24 18:33N 47°38' W 122°23'0 0.0
2016-Aug-24 17:33N 47°38' W 122°23'0 0.0
2016-Aug-24 16:33N 47°38' W 122°23'0 0.0
2016-Aug-24 15:33N 47°38' W 122°23'0 0.0
2016-Aug-24 14:33N 47°38' W 122°23'0 0.0
2016-Aug-24 13:33N 47°38' W 122°23'0 0.0
2016-Aug-24 12:33N 47°38' W 122°23'0 0.0
2016-Aug-24 11:33N 47°38' W 122°23'0 0.0
2016-Aug-24 10:33N 47°38' W 122°23'0 0.0
2016-Aug-24 09:33N 47°38' W 122°23'0 0.0
2016-Aug-24 08:33N 47°38' W 122°23'0 0.0
2016-Aug-24 07:33N 47°38' W 122°23'0 0.0
2016-Aug-24 06:33N 47°38' W 122°23'0 0.2
2016-Aug-24 04:33N 47°38' W 122°23'7 7.0
2016-Aug-24 03:33N 47°45' W 122°25'8 8.3
2016-Aug-24 02:33N 47°53' W 122°23'8 8.3
2016-Aug-24 01:33N 48°01' W 122°22'8 8.3
2016-Aug-24 00:32N 48°07' W 122°30'8 8.3
2016-Aug-23 23:33N 48°15' W 122°32'8 8.3
2016-Aug-23 22:33N 48°23' W 122°35'1 1.3
2016-Aug-23 21:30N 48°24' W 122°34'0 0.0
2016-Aug-23 20:32N 48°24' W 122°34'0 0.0
2016-Aug-23 19:31N 48°24' W 122°34'0 0.0
2016-Aug-23 18:33N 48°25' W 122°34'0 0.0
2016-Aug-23 17:33N 48°24' W 122°34'0 0.0
2016-Aug-23 16:30N 48°24' W 122°34'0 0.0
2016-Aug-23 15:29N 48°24' W 122°34'0 0.0
2016-Aug-23 14:30N 48°24' W 122°34'0 0.0
2016-Aug-23 13:33N 48°24' W 122°34'0 0.0
2016-Aug-23 12:10N 48°24' W 122°34'0 0.0
2016-Aug-23 11:23N 48°24' W 122°34'0 0.0
2016-Aug-23 10:32N 48°24' W 122°34'0 0.0
2016-Aug-23 09:31N 48°24' W 122°34'0 0.0
2016-Aug-23 08:31N 48°24' W 122°34'0 0.0
2016-Aug-23 07:33N 48°24' W 122°34'0 0.0
2016-Aug-23 06:33N 48°24' W 122°34'0 0.0
2016-Aug-23 05:30N 48°24' W 122°34'0 0.0
2016-Aug-23 04:28N 48°24' W 122°34'0 0.0
2016-Aug-23 03:22N 48°24' W 122°34'2 2.4
2016-Aug-23 02:32N 48°22' W 122°34'8 7.9
2016-Aug-23 01:31N 48°15' W 122°33'9 8.6
2016-Aug-23 00:32N 48°06' W 122°29'8 8.3
2016-Aug-22 23:31N 47°60' W 122°21'7 7.8
2016-Aug-22 22:33N 47°53' W 122°23'9 8.8
2016-Aug-22 21:33N 47°44' W 122°26'6 6.3
2016-Aug-22 20:34N 47°38' W 122°23'0 0.0
2016-Aug-22 19:34N 47°38' W 122°23'0 0.0
2016-Aug-22 18:33N 47°38' W 122°23'0 0.0
2016-Aug-22 17:34N 47°38' W 122°23'0 0.0
2016-Aug-22 16:33N 47°38' W 122°23'0 0.0
2016-Aug-22 15:33N 47°38' W 122°23'0 0.0
2016-Aug-22 14:33N 47°38' W 122°23'0 0.0
2016-Aug-22 13:34N 47°38' W 122°23'0 0.0
2016-Aug-22 12:33N 47°38' W 122°23'0 0.0
2016-Aug-22 11:34N 47°38' W 122°23'0 0.0
2016-Aug-22 10:33N 47°38' W 122°23'0 0.0
2016-Aug-22 09:33N 47°38' W 122°23'0 0.0
2016-Aug-22 08:33N 47°38' W 122°23'0 0.0
2016-Aug-22 07:34N 47°38' W 122°23'0 0.0
2016-Aug-22 06:33N 47°38' W 122°23'4 3.9
2016-Aug-22 05:33N 47°41' W 122°26'8 7.8
2016-Aug-22 04:33N 47°49' W 122°24'8 8.3
2016-Aug-22 03:33N 47°57' W 122°21'8 8.0
2016-Aug-22 02:33N 48°04' W 122°26'8 8.2
2016-Aug-22 01:32N 48°11' W 122°33'7 7.1
2016-Aug-22 00:32N 48°18' W 122°30'7 6.7
2016-Aug-21 23:29N 48°25' W 122°34'0 0.0
2016-Aug-21 20:13N 48°24' W 122°34'0 0.0
2016-Aug-21 18:32N 48°24' W 122°34'0 0.0
2016-Aug-21 16:19N 48°24' W 122°34'0 0.0
2016-Aug-21 14:33N 48°24' W 122°34'0 0.1
2016-Aug-21 13:33N 48°24' W 122°34'0 0.0
2016-Aug-21 12:33N 48°24' W 122°34'0 0.0
2016-Aug-21 11:33N 48°24' W 122°34'0 0.0
2016-Aug-21 10:33N 48°24' W 122°34'0 0.0
2016-Aug-21 09:33N 48°24' W 122°34'0 0.0
2016-Aug-21 08:34N 48°24' W 122°34'0 0.0
2016-Aug-21 07:34N 48°24' W 122°34'0 0.0
2016-Aug-21 06:34N 48°24' W 122°34'0 0.0
2016-Aug-21 05:32N 48°24' W 122°34'0 0.0
2016-Aug-21 04:31N 48°24' W 122°34'0 0.0
2016-Aug-21 03:34N 48°24' W 122°34'0 0.0
2016-Aug-21 02:33N 48°24' W 122°34'0 0.0
2016-Aug-21 01:24N 48°24' W 122°34'0 0.0
2016-Aug-21 00:23N 48°24' W 122°34'0 0.0
2016-Aug-20 23:27N 48°24' W 122°34'0 0.0
2016-Aug-20 22:33N 48°24' W 122°34'0 0.0
2016-Aug-20 20:30N 48°24' W 122°34'0 0.0
2016-Aug-20 19:21N 48°24' W 122°34'4 4.3
2016-Aug-20 18:30N 48°21' W 122°33'6 6.3
2016-Aug-20 17:33N 48°15' W 122°32'8 7.5
2016-Aug-20 16:30N 48°07' W 122°30'7 7.6
2016-Aug-20 15:31N 48°02' W 122°22'7 7.5
2016-Aug-20 14:33N 47°55' W 122°22'8 8.3
2016-Aug-20 13:34N 47°47' W 122°25'8 8.0
2016-Aug-20 12:33N 47°39' W 122°26'2 2.1
2016-Aug-20 11:33N 47°38' W 122°23'0 0.0
2016-Aug-20 10:33N 47°38' W 122°23'0 0.0
2016-Aug-20 09:33N 47°38' W 122°23'0 0.0
2016-Aug-20 08:33N 47°38' W 122°23'0 0.0
2016-Aug-20 07:33N 47°38' W 122°23'0 0.0
2016-Aug-20 06:34N 47°38' W 122°23'0 0.0
2016-Aug-20 05:34N 47°38' W 122°23'0 0.0
2016-Aug-20 04:34N 47°38' W 122°23'0 0.0
2016-Aug-20 03:34N 47°38' W 122°23'0 0.0
2016-Aug-20 02:34N 47°38' W 122°23'0 0.0
2016-Aug-20 01:34N 47°38' W 122°23'0 0.0
2016-Aug-20 00:33N 47°38' W 122°23'0 0.0
2016-Aug-19 23:33N 47°38' W 122°23'0 0.0
2016-Aug-19 22:34N 47°38' W 122°23'0 0.0
2016-Aug-19 21:33N 47°38' W 122°23'0 0.0
2016-Aug-19 20:34N 47°38' W 122°23'0 0.0
2016-Aug-19 19:34N 47°38' W 122°23'0 0.0
2016-Aug-19 18:33N 47°38' W 122°23'0 0.0
2016-Aug-19 17:33N 47°38' W 122°23'0 0.0
2016-Aug-19 16:33N 47°38' W 122°23'0 0.0
2016-Aug-19 15:33N 47°38' W 122°23'0 0.0
2016-Aug-19 14:33N 47°38' W 122°23'0 0.0
2016-Aug-19 13:33N 47°38' W 122°23'0 0.0
2016-Aug-19 12:33N 47°38' W 122°23'0 0.0
2016-Aug-19 11:33N 47°38' W 122°23'0 0.0
2016-Aug-19 10:33N 47°38' W 122°23'0 0.0
2016-Aug-19 09:33N 47°38' W 122°23'0 0.0
2016-Aug-19 08:33N 47°38' W 122°23'0 0.0
2016-Aug-19 07:33N 47°38' W 122°23'0 0.0
2016-Aug-19 06:33N 47°38' W 122°23'0 0.0
2016-Aug-19 05:33N 47°38' W 122°23'0 0.0
2016-Aug-19 04:34N 47°38' W 122°23'5 4.7
2016-Aug-19 03:34N 47°42' W 122°26'8 8.1
2016-Aug-19 02:34N 47°50' W 122°24'9 8.5
2016-Aug-19 01:33N 47°59' W 122°21'9 8.4
2016-Aug-19 00:27N 48°06' W 122°29'7 8.2
2016-Aug-18 23:33N 48°13' W 122°33'7 6.8
2016-Aug-18 22:33N 48°20' W 122°31'5 4.3
2016-Aug-18 21:20N 48°24' W 122°34'0 0.0
2016-Aug-18 20:31N 48°24' W 122°34'0 0.0
2016-Aug-18 19:24N 48°24' W 122°34'0 0.0
2016-Aug-18 18:07N 48°24' W 122°34'0 0.0
2016-Aug-18 17:24N 48°24' W 122°34'0 0.0
2016-Aug-18 12:33N 48°24' W 122°34'0 0.0
2016-Aug-18 11:27N 48°24' W 122°34'0 0.0
2016-Aug-18 08:12N 48°24' W 122°34'0 0.0
2016-Aug-18 07:33N 48°24' W 122°34'0 0.0
2016-Aug-18 06:33N 48°24' W 122°34'0 0.0
2016-Aug-18 05:32N 48°24' W 122°34'0 0.0
2016-Aug-18 04:29N 48°24' W 122°34'0 0.0
2016-Aug-18 03:33N 48°24' W 122°34'0 0.0
2016-Aug-18 02:32N 48°24' W 122°34'0 0.2
2016-Aug-18 00:32N 48°24' W 122°34'8 8.5
2016-Aug-17 23:33N 48°16' W 122°31'9 7.8
2016-Aug-17 22:24N 48°07' W 122°30'8 8.4
2016-Aug-17 21:24N 48°01' W 122°22'7 8.2
2016-Aug-17 20:33N 47°54' W 122°21'8 8.2
2016-Aug-17 19:34N 47°47' W 122°25'8 8.2
2016-Aug-17 18:33N 47°38' W 122°26'2 1.7
2016-Aug-17 17:33N 47°38' W 122°23'0 0.0
2016-Aug-17 16:34N 47°38' W 122°23'0 0.0
2016-Aug-17 15:33N 47°38' W 122°23'0 0.0
2016-Aug-17 14:34N 47°38' W 122°23'0 0.0
2016-Aug-17 13:34N 47°38' W 122°23'0 0.0
2016-Aug-17 12:34N 47°38' W 122°23'0 0.0
2016-Aug-17 11:34N 47°38' W 122°23'0 0.0
2016-Aug-17 10:34N 47°38' W 122°23'0 0.0
2016-Aug-17 09:34N 47°38' W 122°23'0 0.0
2016-Aug-17 08:34N 47°38' W 122°23'0 0.0
2016-Aug-17 07:33N 47°38' W 122°23'0 0.0
2016-Aug-17 06:33N 47°38' W 122°23'0 0.0
2016-Aug-17 05:33N 47°38' W 122°23'0 0.0
2016-Aug-17 04:33N 47°38' W 122°23'0 0.0
2016-Aug-17 03:34N 47°38' W 122°23'5 4.8
2016-Aug-17 02:33N 47°42' W 122°26'8 8.3
2016-Aug-17 01:34N 47°51' W 122°24'8 8.4
2016-Aug-17 00:33N 47°59' W 122°20'8 8.2
2016-Aug-16 23:31N 48°06' W 122°28'14 7.0
2016-Aug-16 21:33N 48°19' W 122°31'6 1.4
2016-Aug-16 17:33N 48°24' W 122°34'0 0.0
2016-Aug-16 15:15N 48°24' W 122°34'0 0.0
2016-Aug-16 14:30N 48°24' W 122°34'0 0.0
2016-Aug-16 13:33N 48°24' W 122°34'0 0.0
2016-Aug-16 12:09N 48°24' W 122°34'  
Track history (hours):
 
Tides and Currents Weather Stations Pressure Air Temp Water Temp Dewpoint Dewpoint Depression Visibility Wind Speed Wind Dir Waves Ship Positions

F/V Harvestor

Owner: F/V HARVESTOR INC., EDMONDS, WA. More information available from US FCC via Universal Licensing System and Coast Guard Vessel Documentation Center.

Last reported at 2016-Aug-26 11:33 UTC. Time now 2016-Aug-26 11:56 UTC.
Position N 47°38' W 122°23'.

Length 40 m.

Type: Fishing. MMSI: 367083650.

Date/timePositionNaut miles runAvg speedWind from/ knotsBaromVisibWave heightAir tempDewpointWater temp
2016-Aug-26 11:33N 47°38' W 122°23'0 0.0
2016-Aug-26 10:33N 47°38' W 122°23'0 0.0
2016-Aug-26 09:33N 47°38' W 122°23'0 0.0
2016-Aug-26 08:33N 47°38' W 122°23'0 0.0
2016-Aug-26 07:33N 47°38' W 122°23'0 0.0
2016-Aug-26 06:33N 47°38' W 122°23'0 0.0
2016-Aug-26 04:33N 47°38' W 122°23'0 0.0
2016-Aug-26 03:33N 47°38' W 122°23'5 4.6
2016-Aug-26 02:33N 47°42' W 122°26'8 8.4
2016-Aug-26 01:33N 47°50' W 122°24'9 8.7
2016-Aug-26 00:33N 47°59' W 122°20'9 8.9
2016-Aug-25 23:34N 48°06' W 122°28'8 8.4
2016-Aug-25 22:33N 48°14' W 122°33'7 6.7
2016-Aug-25 21:31N 48°21' W 122°33'4 3.7
2016-Aug-25 20:29N 48°24' W 122°34'0 0.0
2016-Aug-25 19:19N 48°24' W 122°34'0 0.0
2016-Aug-25 18:15N 48°24' W 122°34'0 0.0
2016-Aug-25 17:33N 48°25' W 122°34'0 0.0
2016-Aug-25 13:27N 48°24' W 122°34'0 0.0
2016-Aug-25 12:33N 48°24' W 122°34'0 0.0
2016-Aug-25 11:06N 48°24' W 122°34'0 0.0
2016-Aug-25 09:33N 48°24' W 122°34'0 0.0
2016-Aug-25 08:33N 48°24' W 122°34'0 0.0
2016-Aug-25 07:31N 48°24' W 122°34'0 0.0
2016-Aug-25 06:33N 48°24' W 122°34'0 0.0
2016-Aug-25 04:32N 48°24' W 122°34'0 0.0
2016-Aug-25 03:29N 48°25' W 122°34'3 2.9
2016-Aug-25 02:30N 48°22' W 122°34'7 7.1
2016-Aug-25 01:33N 48°15' W 122°32'8 7.7
2016-Aug-25 00:30N 48°07' W 122°30'7 7.8
2016-Aug-24 23:33N 48°02' W 122°22'7 7.2
2016-Aug-24 22:33N 47°55' W 122°21'8 7.9
2016-Aug-24 21:33N 47°47' W 122°25'9 8.7
2016-Aug-24 20:33N 47°39' W 122°25'2 1.8
2016-Aug-24 19:33N 47°38' W 122°23'0 0.0
2016-Aug-24 18:33N 47°38' W 122°23'0 0.0
2016-Aug-24 17:33N 47°38' W 122°23'0 0.0
2016-Aug-24 16:33N 47°38' W 122°23'0 0.0
2016-Aug-24 15:33N 47°38' W 122°23'0 0.0
2016-Aug-24 14:33N 47°38' W 122°23'0 0.0
2016-Aug-24 13:33N 47°38' W 122°23'0 0.0
2016-Aug-24 12:33N 47°38' W 122°23'0 0.0
2016-Aug-24 11:33N 47°38' W 122°23'0 0.0
2016-Aug-24 10:33N 47°38' W 122°23'0 0.0
2016-Aug-24 09:33N 47°38' W 122°23'0 0.0
2016-Aug-24 08:33N 47°38' W 122°23'0 0.0
2016-Aug-24 07:33N 47°38' W 122°23'0 0.0
2016-Aug-24 06:33N 47°38' W 122°23'0 0.2
2016-Aug-24 04:33N 47°38' W 122°23'7 7.0
2016-Aug-24 03:33N 47°45' W 122°25'8 8.3
2016-Aug-24 02:33N 47°53' W 122°23'8 8.3
2016-Aug-24 01:33N 48°01' W 122°22'8 8.3
2016-Aug-24 00:32N 48°07' W 122°30'8 8.3
2016-Aug-23 23:33N 48°15' W 122°32'8 8.3
2016-Aug-23 22:33N 48°23' W 122°35'1 1.3
2016-Aug-23 21:30N 48°24' W 122°34'0 0.0
2016-Aug-23 20:32N 48°24' W 122°34'0 0.0
2016-Aug-23 19:31N 48°24' W 122°34'0 0.0
2016-Aug-23 18:33N 48°25' W 122°34'0 0.0
2016-Aug-23 17:33N 48°24' W 122°34'0 0.0
2016-Aug-23 16:30N 48°24' W 122°34'0 0.0
2016-Aug-23 15:29N 48°24' W 122°34'0 0.0
2016-Aug-23 14:30N 48°24' W 122°34'0 0.0
2016-Aug-23 13:33N 48°24' W 122°34'0 0.0
2016-Aug-23 12:10N 48°24' W 122°34'0 0.0
2016-Aug-23 11:23N 48°24' W 122°34'0 0.0
2016-Aug-23 10:32N 48°24' W 122°34'0 0.0
2016-Aug-23 09:31N 48°24' W 122°34'0 0.0
2016-Aug-23 08:31N 48°24' W 122°34'0 0.0
2016-Aug-23 07:33N 48°24' W 122°34'0 0.0
2016-Aug-23 06:33N 48°24' W 122°34'0 0.0
2016-Aug-23 05:30N 48°24' W 122°34'0 0.0
2016-Aug-23 04:28N 48°24' W 122°34'0 0.0
2016-Aug-23 03:22N 48°24' W 122°34'2 2.4
2016-Aug-23 02:32N 48°22' W 122°34'8 7.9
2016-Aug-23 01:31N 48°15' W 122°33'9 8.6
2016-Aug-23 00:32N 48°06' W 122°29'8 8.3
2016-Aug-22 23:31N 47°60' W 122°21'7 7.8
2016-Aug-22 22:33N 47°53' W 122°23'9 8.8
2016-Aug-22 21:33N 47°44' W 122°26'6 6.3
2016-Aug-22 20:34N 47°38' W 122°23'0 0.0
2016-Aug-22 19:34N 47°38' W 122°23'0 0.0
2016-Aug-22 18:33N 47°38' W 122°23'0 0.0
2016-Aug-22 17:34N 47°38' W 122°23'0 0.0
2016-Aug-22 16:33N 47°38' W 122°23'0 0.0
2016-Aug-22 15:33N 47°38' W 122°23'0 0.0
2016-Aug-22 14:33N 47°38' W 122°23'0 0.0
2016-Aug-22 13:34N 47°38' W 122°23'0 0.0
2016-Aug-22 12:33N 47°38' W 122°23'0 0.0
2016-Aug-22 11:34N 47°38' W 122°23'0 0.0
2016-Aug-22 10:33N 47°38' W 122°23'0 0.0
2016-Aug-22 09:33N 47°38' W 122°23'0 0.0
2016-Aug-22 08:33N 47°38' W 122°23'0 0.0
2016-Aug-22 07:34N 47°38' W 122°23'0 0.0
2016-Aug-22 06:33N 47°38' W 122°23'4 3.9
2016-Aug-22 05:33N 47°41' W 122°26'8 7.8
2016-Aug-22 04:33N 47°49' W 122°24'8 8.3
2016-Aug-22 03:33N 47°57' W 122°21'8 8.0
2016-Aug-22 02:33N 48°04' W 122°26'8 8.2
2016-Aug-22 01:32N 48°11' W 122°33'7 7.1
2016-Aug-22 00:32N 48°18' W 122°30'7 6.7
2016-Aug-21 23:29N 48°25' W 122°34'0 0.0
2016-Aug-21 20:13N 48°24' W 122°34'0 0.0
2016-Aug-21 18:32N 48°24' W 122°34'0 0.0
2016-Aug-21 16:19N 48°24' W 122°34'0 0.0
2016-Aug-21 14:33N 48°24' W 122°34'0 0.1
2016-Aug-21 13:33N 48°24' W 122°34'0 0.0
2016-Aug-21 12:33N 48°24' W 122°34'0 0.0
2016-Aug-21 11:33N 48°24' W 122°34'0 0.0
2016-Aug-21 10:33N 48°24' W 122°34'0 0.0
2016-Aug-21 09:33N 48°24' W 122°34'0 0.0
2016-Aug-21 08:34N 48°24' W 122°34'0 0.0
2016-Aug-21 07:34N 48°24' W 122°34'0 0.0
2016-Aug-21 06:34N 48°24' W 122°34'0 0.0
2016-Aug-21 05:32N 48°24' W 122°34'0 0.0
2016-Aug-21 04:31N 48°24' W 122°34'0 0.0
2016-Aug-21 03:34N 48°24' W 122°34'0 0.0
2016-Aug-21 02:33N 48°24' W 122°34'0 0.0
2016-Aug-21 01:24N 48°24' W 122°34'0 0.0
2016-Aug-21 00:23N 48°24' W 122°34'0 0.0
2016-Aug-20 23:27N 48°24' W 122°34'0 0.0
2016-Aug-20 22:33N 48°24' W 122°34'0 0.0
2016-Aug-20 20:30N 48°24' W 122°34'0 0.0
2016-Aug-20 19:21N 48°24' W 122°34'4 4.3
2016-Aug-20 18:30N 48°21' W 122°33'6 6.3
2016-Aug-20 17:33N 48°15' W 122°32'8 7.5
2016-Aug-20 16:30N 48°07' W 122°30'7 7.6
2016-Aug-20 15:31N 48°02' W 122°22'7 7.5
2016-Aug-20 14:33N 47°55' W 122°22'8 8.3
2016-Aug-20 13:34N 47°47' W 122°25'8 8.0
2016-Aug-20 12:33N 47°39' W 122°26'2 2.1
2016-Aug-20 11:33N 47°38' W 122°23'0 0.0
2016-Aug-20 10:33N 47°38' W 122°23'0 0.0
2016-Aug-20 09:33N 47°38' W 122°23'0 0.0
2016-Aug-20 08:33N 47°38' W 122°23'0 0.0
2016-Aug-20 07:33N 47°38' W 122°23'0 0.0
2016-Aug-20 06:34N 47°38' W 122°23'0 0.0
2016-Aug-20 05:34N 47°38' W 122°23'0 0.0
2016-Aug-20 04:34N 47°38' W 122°23'0 0.0
2016-Aug-20 03:34N 47°38' W 122°23'0 0.0
2016-Aug-20 02:34N 47°38' W 122°23'0 0.0
2016-Aug-20 01:34N 47°38' W 122°23'0 0.0
2016-Aug-20 00:33N 47°38' W 122°23'0 0.0
2016-Aug-19 23:33N 47°38' W 122°23'0 0.0
2016-Aug-19 22:34N 47°38' W 122°23'0 0.0
2016-Aug-19 21:33N 47°38' W 122°23'0 0.0
2016-Aug-19 20:34N 47°38' W 122°23'0 0.0
2016-Aug-19 19:34N 47°38' W 122°23'0 0.0
2016-Aug-19 18:33N 47°38' W 122°23'0 0.0
2016-Aug-19 17:33N 47°38' W 122°23'0 0.0
2016-Aug-19 16:33N 47°38' W 122°23'0 0.0
2016-Aug-19 15:33N 47°38' W 122°23'0 0.0
2016-Aug-19 14:33N 47°38' W 122°23'0 0.0
2016-Aug-19 13:33N 47°38' W 122°23'0 0.0
2016-Aug-19 12:33N 47°38' W 122°23'0 0.0
2016-Aug-19 11:33N 47°38' W 122°23'0 0.0
2016-Aug-19 10:33N 47°38' W 122°23'0 0.0
2016-Aug-19 09:33N 47°38' W 122°23'0 0.0
2016-Aug-19 08:33N 47°38' W 122°23'0 0.0
2016-Aug-19 07:33N 47°38' W 122°23'0 0.0
2016-Aug-19 06:33N 47°38' W 122°23'0 0.0
2016-Aug-19 05:33N 47°38' W 122°23'0 0.0
2016-Aug-19 04:34N 47°38' W 122°23'5 4.7
2016-Aug-19 03:34N 47°42' W 122°26'8 8.1
2016-Aug-19 02:34N 47°50' W 122°24'9 8.5
2016-Aug-19 01:33N 47°59' W 122°21'9 8.4
2016-Aug-19 00:27N 48°06' W 122°29'7 8.2
2016-Aug-18 23:33N 48°13' W 122°33'7 6.8
2016-Aug-18 22:33N 48°20' W 122°31'5 4.3
2016-Aug-18 21:20N 48°24' W 122°34'0 0.0
2016-Aug-18 20:31N 48°24' W 122°34'0 0.0
2016-Aug-18 19:24N 48°24' W 122°34'0 0.0
2016-Aug-18 18:07N 48°24' W 122°34'0 0.0
2016-Aug-18 17:24N 48°24' W 122°34'0 0.0
2016-Aug-18 12:33N 48°24' W 122°34'0 0.0
2016-Aug-18 11:27N 48°24' W 122°34'0 0.0
2016-Aug-18 08:12N 48°24' W 122°34'0 0.0
2016-Aug-18 07:33N 48°24' W 122°34'0 0.0
2016-Aug-18 06:33N 48°24' W 122°34'0 0.0
2016-Aug-18 05:32N 48°24' W 122°34'0 0.0
2016-Aug-18 04:29N 48°24' W 122°34'0 0.0
2016-Aug-18 03:33N 48°24' W 122°34'0 0.0
2016-Aug-18 02:32N 48°24' W 122°34'0 0.2
2016-Aug-18 00:32N 48°24' W 122°34'8 8.5
2016-Aug-17 23:33N 48°16' W 122°31'9 7.8
2016-Aug-17 22:24N 48°07' W 122°30'8 8.4
2016-Aug-17 21:24N 48°01' W 122°22'7 8.2
2016-Aug-17 20:33N 47°54' W 122°21'8 8.2
2016-Aug-17 19:34N 47°47' W 122°25'8 8.2
2016-Aug-17 18:33N 47°38' W 122°26'2 1.7
2016-Aug-17 17:33N 47°38' W 122°23'0 0.0
2016-Aug-17 16:34N 47°38' W 122°23'0 0.0
2016-Aug-17 15:33N 47°38' W 122°23'0 0.0
2016-Aug-17 14:34N 47°38' W 122°23'0 0.0
2016-Aug-17 13:34N 47°38' W 122°23'0 0.0
2016-Aug-17 12:34N 47°38' W 122°23'0 0.0
2016-Aug-17 11:34N 47°38' W 122°23'0 0.0
2016-Aug-17 10:34N 47°38' W 122°23'0 0.0
2016-Aug-17 09:34N 47°38' W 122°23'0 0.0
2016-Aug-17 08:34N 47°38' W 122°23'0 0.0
2016-Aug-17 07:33N 47°38' W 122°23'0 0.0
2016-Aug-17 06:33N 47°38' W 122°23'0 0.0
2016-Aug-17 05:33N 47°38' W 122°23'0 0.0
2016-Aug-17 04:33N 47°38' W 122°23'0 0.0
2016-Aug-17 03:34N 47°38' W 122°23'5 4.8
2016-Aug-17 02:33N 47°42' W 122°26'8 8.3
2016-Aug-17 01:34N 47°51' W 122°24'8 8.4
2016-Aug-17 00:33N 47°59' W 122°20'8 8.2
2016-Aug-16 23:31N 48°06' W 122°28'14 7.0
2016-Aug-16 21:33N 48°19' W 122°31'6 1.4
2016-Aug-16 17:33N 48°24' W 122°34'0 0.0
2016-Aug-16 15:15N 48°24' W 122°34'0 0.0
2016-Aug-16 14:30N 48°24' W 122°34'0 0.0
2016-Aug-16 13:33N 48°24' W 122°34'0 0.0
2016-Aug-16 12:09N 48°24' W 122°34'  

Dump ship's entire track history